createdAt,value
2019-03-25T00:01:36.911Z,130.90
2019-03-25T00:04:06.116Z,118.20
2019-03-25T00:06:34.761Z,125.97
2019-03-25T00:09:05.659Z,122.37
2019-03-25T00:11:35.327Z,120.10
2019-03-25T00:14:04.596Z,130.57
2019-03-25T00:16:33.789Z,121.37
2019-03-25T00:19:03.055Z,130.57
2019-03-25T00:21:32.341Z,130.27
2019-03-25T00:24:01.714Z,132.90
2019-03-25T00:26:30.264Z,123.47
2019-03-25T00:28:59.472Z,130.97
2019-03-25T00:31:29.277Z,134.93
2019-03-25T00:33:58.516Z,122.37
2019-03-25T00:36:27.784Z,146.93
2019-03-25T00:38:57.636Z,123.30
2019-03-25T00:41:26.906Z,129.47
2019-03-25T00:43:56.212Z,117.83
2019-03-25T00:46:25.414Z,111.73
2019-03-25T00:48:54.041Z,122.27
2019-03-25T00:51:23.295Z,171.90
2019-03-25T00:53:52.887Z,124.07
2019-03-25T00:56:22.110Z,121.20
2019-03-25T00:58:51.308Z,129.67
2019-03-25T01:01:20.606Z,134.43
2019-03-25T01:03:50.004Z,124.57
2019-03-25T01:06:19.517Z,127.40
2019-03-25T01:08:48.732Z,128.73
2019-03-25T01:11:17.394Z,119.53
2019-03-25T01:13:46.660Z,138.37
2019-03-25T01:16:15.913Z,134.97
2019-03-25T01:18:46.215Z,136.23
2019-03-25T01:21:15.489Z,141.20
2019-03-25T01:23:44.668Z,146.93
2019-03-25T01:26:14.149Z,134.03
2019-03-25T01:28:43.531Z,140.97
2019-03-25T01:31:12.809Z,128.47
2019-03-25T01:33:41.672Z,138.47
2019-03-25T01:36:10.901Z,137.47
2019-03-25T01:38:40.214Z,123.47
2019-03-25T01:41:09.736Z,139.00
2019-03-25T01:43:38.974Z,145.07
2019-03-25T01:46:08.164Z,133.53
2019-03-25T01:48:37.390Z,125.73
2019-03-25T01:51:06.695Z,129.20
2019-03-25T01:53:35.985Z,149.77
2019-03-25T01:56:04.701Z,124.00
2019-03-25T01:58:33.983Z,123.77
2019-03-25T02:01:03.384Z,124.23
2019-03-25T02:03:33.023Z,134.70
2019-03-25T02:06:02.339Z,135.63
2019-03-25T02:08:30.926Z,128.87
2019-03-25T02:11:00.128Z,118.37
2019-03-25T02:13:29.383Z,114.30
2019-03-25T02:15:58.757Z,120.17
2019-03-25T02:18:27.296Z,125.80
2019-03-25T02:20:56.545Z,126.13
2019-03-25T02:23:25.748Z,122.23
2019-03-25T02:25:54.965Z,129.20
2019-03-25T02:28:24.301Z,124.43
2019-03-25T02:30:53.525Z,121.33
2019-03-25T02:33:22.714Z,114.93
2019-03-25T02:35:52.235Z,118.93
2019-03-25T02:38:20.946Z,122.80
2019-03-25T02:40:50.585Z,124.90
2019-03-25T02:43:19.833Z,116.47
2019-03-25T02:45:50.058Z,114.47
2019-03-25T02:48:19.270Z,112.53
2019-03-25T02:50:48.554Z,121.80
2019-03-25T02:53:17.876Z,115.57
2019-03-25T02:55:47.057Z,122.63
2019-03-25T02:58:16.274Z,122.97
2019-03-25T03:00:44.914Z,116.50
2019-03-25T03:03:14.543Z,121.47
2019-03-25T03:05:43.783Z,131.90
2019-03-25T03:08:12.980Z,120.17
2019-03-25T03:10:42.282Z,129.33
2019-03-25T03:13:11.569Z,135.90
2019-03-25T03:15:41.197Z,122.10
2019-03-25T03:18:10.476Z,127.83
2019-03-25T03:20:39.974Z,126.73
2019-03-25T03:23:08.573Z,139.77
2019-03-25T03:25:37.823Z,133.37
2019-03-25T03:28:07.040Z,128.17
2019-03-25T03:30:36.331Z,129.50
2019-03-25T03:33:06.043Z,132.43
2019-03-25T03:35:35.349Z,140.87
2019-03-25T03:38:05.574Z,129.53
2019-03-25T03:40:34.882Z,124.37
2019-03-25T03:43:04.177Z,127.33
2019-03-25T03:45:32.740Z,141.43
2019-03-25T03:48:01.949Z,133.53
2019-03-25T03:50:31.144Z,150.40
2019-03-25T03:53:00.438Z,149.57
2019-03-25T03:55:29.765Z,148.33
2019-03-25T03:57:59.504Z,141.90
2019-03-25T04:00:30.489Z,132.73
2019-03-25T04:03:00.191Z,150.30
2019-03-25T04:05:29.400Z,147.70
2019-03-25T04:07:57.987Z,142.33
2019-03-25T04:10:27.438Z,148.00
2019-03-25T04:12:57.005Z,153.40
2019-03-25T04:15:28.023Z,122.37
2019-03-25T04:17:57.899Z,147.97
2019-03-25T04:20:27.162Z,138.53
2019-03-25T04:22:56.465Z,140.43
2019-03-25T04:25:25.737Z,139.03
2019-03-25T04:27:55.516Z,127.13
2019-03-25T04:30:24.156Z,136.53
2019-03-25T04:32:53.412Z,157.03
2019-03-25T04:35:22.649Z,146.63
2019-03-25T04:37:52.116Z,147.00
2019-03-25T04:40:21.454Z,146.73
2019-03-25T04:42:50.661Z,137.40
2019-03-25T04:45:19.876Z,157.70
2019-03-25T04:47:49.137Z,159.40
2019-03-25T04:50:18.081Z,127.10
2019-03-25T04:52:47.362Z,142.07
2019-03-25T04:55:16.666Z,133.63
2019-03-25T04:57:46.973Z,130.67
2019-03-25T05:00:17.913Z,131.60
2019-03-25T05:02:48.238Z,137.60
2019-03-25T05:05:17.436Z,142.63
2019-03-25T05:07:47.113Z,140.97
2019-03-25T05:10:16.320Z,128.87
2019-03-25T05:12:44.882Z,139.27
2019-03-25T05:15:14.096Z,126.13
2019-03-25T05:17:43.279Z,122.60
2019-03-25T05:20:12.497Z,113.97
2019-03-25T05:22:42.008Z,106.60
2019-03-25T05:25:11.606Z,109.00
2019-03-25T05:27:40.959Z,102.83
2019-03-25T05:30:10.558Z,115.30
2019-03-25T05:32:39.823Z,99.23
2019-03-25T05:35:08.418Z,108.57
2019-03-25T05:37:38.002Z,113.23
2019-03-25T05:40:07.665Z,104.80
2019-03-25T05:42:36.914Z,97.53
2019-03-25T05:45:07.164Z,109.73
2019-03-25T05:47:36.837Z,96.20
2019-03-25T05:50:09.077Z,101.53
2019-03-25T05:52:38.013Z,95.20
2019-03-25T05:55:07.668Z,99.50
2019-03-25T05:57:36.288Z,93.80
2019-03-25T06:00:05.813Z,91.63
2019-03-25T06:02:35.005Z,91.63
2019-03-25T06:05:04.309Z,96.93
2019-03-25T06:07:33.929Z,106.43
2019-03-25T06:10:03.234Z,91.60
2019-03-25T06:12:32.841Z,105.97
2019-03-25T06:15:02.044Z,97.87
2019-03-25T06:17:31.229Z,94.37
2019-03-25T06:19:59.780Z,84.53
2019-03-25T06:22:29.105Z,96.50
2019-03-25T06:24:58.299Z,87.73
2019-03-25T06:27:27.502Z,92.07
2019-03-25T06:29:56.848Z,97.70
2019-03-25T06:32:26.061Z,90.73
2019-03-25T06:34:55.285Z,85.27
2019-03-25T06:37:24.589Z,91.97
2019-03-25T06:39:54.116Z,76.57
2019-03-25T06:42:22.761Z,96.67
2019-03-25T06:44:51.981Z,86.20
2019-03-25T06:47:21.316Z,80.23
2019-03-25T06:49:50.589Z,78.87
2019-03-25T06:52:19.889Z,87.33
2019-03-25T06:54:49.173Z,92.33
2019-03-25T06:57:25.446Z,83.80
2019-03-25T06:59:49.500Z,83.60
2019-03-25T07:02:18.738Z,89.53
2019-03-25T07:04:47.292Z,87.33
2019-03-25T07:07:16.495Z,90.20
2019-03-25T07:09:45.683Z,86.33
2019-03-25T07:12:14.985Z,94.27
2019-03-25T07:14:44.205Z,93.03
2019-03-25T07:17:13.505Z,82.90
2019-03-25T07:19:42.696Z,91.43
2019-03-25T07:22:12.333Z,95.50
2019-03-25T07:24:40.970Z,86.07
2019-03-25T07:27:10.290Z,79.97
2019-03-25T07:29:39.593Z,95.03
2019-03-25T07:32:09.096Z,91.77
2019-03-25T07:34:38.474Z,78.27
2019-03-25T07:37:07.710Z,81.83
2019-03-25T07:39:37.629Z,84.23
2019-03-25T07:42:07.224Z,87.53
2019-03-25T07:44:36.415Z,81.80
2019-03-25T07:47:04.986Z,81.57
2019-03-25T07:49:34.288Z,88.13
2019-03-25T07:52:03.903Z,86.60
2019-03-25T07:54:33.189Z,93.20
2019-03-25T07:57:02.729Z,102.20
2019-03-25T07:59:32.116Z,88.57
2019-03-25T08:02:01.328Z,86.40
2019-03-25T08:04:29.910Z,82.93
2019-03-25T08:06:59.202Z,80.97
2019-03-25T08:09:28.768Z,94.03
2019-03-25T08:11:58.025Z,74.40
2019-03-25T08:14:27.241Z,91.13
2019-03-25T08:16:57.856Z,82.17
2019-03-25T08:19:27.453Z,88.47
2019-03-25T08:21:56.666Z,83.00
2019-03-25T08:24:25.911Z,89.07
2019-03-25T08:26:55.387Z,80.23
2019-03-25T08:29:24.617Z,82.80
2019-03-25T08:31:53.260Z,81.33
2019-03-25T08:34:22.465Z,80.77
2019-03-25T08:36:51.728Z,72.70
2019-03-25T08:39:21.007Z,82.23
2019-03-25T08:41:50.329Z,76.60
2019-03-25T08:44:19.625Z,84.37
2019-03-25T08:46:48.934Z,81.47
2019-03-25T08:49:18.150Z,76.73
2019-03-25T08:51:47.438Z,91.13
2019-03-25T08:54:16.081Z,93.97
2019-03-25T08:56:45.413Z,86.73
2019-03-25T08:59:14.704Z,89.40
2019-03-25T09:01:43.939Z,79.00
2019-03-25T09:04:13.180Z,85.90
2019-03-25T09:06:42.508Z,89.03
2019-03-25T09:09:11.808Z,80.67
2019-03-25T09:11:41.437Z,76.50
2019-03-25T09:14:10.105Z,70.43
2019-03-25T09:16:39.338Z,87.70
2019-03-25T09:19:08.876Z,95.57
2019-03-25T09:21:38.447Z,86.17
2019-03-25T09:24:07.672Z,76.60
2019-03-25T09:26:36.899Z,84.80
2019-03-25T09:29:06.242Z,82.33
2019-03-25T09:31:36.963Z,75.37
2019-03-25T09:34:06.569Z,68.30
2019-03-25T09:36:35.201Z,68.97
2019-03-25T09:39:06.423Z,64.47
2019-03-25T09:41:35.713Z,77.00
2019-03-25T09:44:05.005Z,66.30
2019-03-25T09:46:34.204Z,69.53
2019-03-25T09:49:03.449Z,74.70
2019-03-25T09:51:32.764Z,68.43
2019-03-25T09:54:02.032Z,58.97
2019-03-25T09:56:31.285Z,55.07
2019-03-25T09:58:59.827Z,70.67
2019-03-25T10:01:30.051Z,61.70
2019-03-25T10:03:59.370Z,52.10
2019-03-25T10:06:28.900Z,63.97
2019-03-25T10:08:58.162Z,49.13
2019-03-25T10:11:27.397Z,48.90
2019-03-25T10:13:56.653Z,62.03
2019-03-25T10:16:25.946Z,72.03
2019-03-25T10:18:54.549Z,52.33
2019-03-25T10:21:23.150Z,54.13
2019-03-25T10:23:52.526Z,50.47
2019-03-25T10:26:22.162Z,51.03
2019-03-25T10:28:51.524Z,52.83
2019-03-25T10:31:20.722Z,62.73
2019-03-25T10:33:49.956Z,52.87
2019-03-25T10:36:19.574Z,54.73
2019-03-25T10:38:48.857Z,39.97
2019-03-25T10:41:17.494Z,32.67
2019-03-25T10:43:46.733Z,58.30
2019-03-25T10:46:16.073Z,45.63
2019-03-25T10:48:45.421Z,48.00
2019-03-25T10:51:14.710Z,38.30
2019-03-25T10:53:43.943Z,44.17
2019-03-25T10:56:13.253Z,31.40
2019-03-25T10:58:42.500Z,59.97
2019-03-25T11:01:11.681Z,32.80
2019-03-25T11:03:40.524Z,42.10
2019-03-25T11:06:09.815Z,41.33
2019-03-25T11:08:39.126Z,29.93
2019-03-25T11:11:08.330Z,33.43
2019-03-25T11:13:37.584Z,26.20
2019-03-25T11:16:06.785Z,22.10
2019-03-25T11:18:35.997Z,27.03
2019-03-25T11:21:05.322Z,17.80
2019-03-25T11:23:34.893Z,15.30
2019-03-25T11:26:03.515Z,17.33
2019-03-25T11:28:32.830Z,24.73
2019-03-25T11:31:02.082Z,19.57
2019-03-25T11:33:31.333Z,30.00
2019-03-25T11:36:02.691Z,18.97
2019-03-25T11:38:33.113Z,26.90
2019-03-25T11:41:02.699Z,29.13
2019-03-25T11:43:31.999Z,28.73
2019-03-25T11:46:01.300Z,33.30
2019-03-25T11:48:29.885Z,49.23
2019-03-25T11:50:59.147Z,34.77
2019-03-25T11:53:28.784Z,41.53
2019-03-25T11:55:59.073Z,64.13
2019-03-25T11:58:28.301Z,70.60
2019-03-25T12:00:57.653Z,88.23
2019-03-25T12:03:26.902Z,36.83
2019-03-25T12:05:56.215Z,186.37
2019-03-25T12:08:25.484Z,82.20
2019-03-25T12:10:54.074Z,52.73
2019-03-25T12:13:23.269Z,61.10
2019-03-25T12:15:52.482Z,20.77
2019-03-25T12:18:21.782Z,43.73
2019-03-25T12:20:51.044Z,146.33
2019-03-25T12:23:26.367Z,22.10
2019-03-25T12:25:51.191Z,29.27
2019-03-25T12:28:20.855Z,60.20
2019-03-25T12:30:50.473Z,33.10
2019-03-25T12:33:19.035Z,22.73
2019-03-25T12:35:48.241Z,15.90
2019-03-25T12:38:17.501Z,42.90
2019-03-25T12:40:46.772Z,16.53
2019-03-25T12:43:16.045Z,35.23
2019-03-25T12:45:45.318Z,41.23
2019-03-25T12:48:14.521Z,27.50
2019-03-25T12:50:44.101Z,18.30
2019-03-25T12:53:13.390Z,14.50
2019-03-25T12:55:42.121Z,19.43
2019-03-25T12:58:11.379Z,19.00
2019-03-25T13:00:44.110Z,15.73
2019-03-25T13:03:13.388Z,7.37
2019-03-25T13:05:43.002Z,19.13
2019-03-25T13:08:12.204Z,5.73
2019-03-25T13:10:41.469Z,11.40
2019-03-25T13:13:10.907Z,6.20
2019-03-25T13:15:39.763Z,6.97
2019-03-25T13:18:08.319Z,6.97
2019-03-25T13:20:37.875Z,2.60
2019-03-25T13:23:07.133Z,4.90
2019-03-25T13:25:36.325Z,8.70
2019-03-25T13:28:05.581Z,2.93
2019-03-25T13:30:34.843Z,3.87
2019-03-25T13:33:04.062Z,6.13
2019-03-25T13:35:33.357Z,1.97
2019-03-25T13:38:01.929Z,4.07
2019-03-25T13:40:31.577Z,1.80
2019-03-25T13:43:00.845Z,5.40
2019-03-25T13:45:30.443Z,8.63
2019-03-25T13:47:59.760Z,5.80
2019-03-25T13:50:29.360Z,3.10
2019-03-25T13:52:58.638Z,2.43
2019-03-25T13:55:28.542Z,5.47
2019-03-25T13:57:58.462Z,4.00
2019-03-25T14:00:36.828Z,2.00
2019-03-25T14:03:06.121Z,4.90
2019-03-25T14:05:35.388Z,5.27
2019-03-25T14:08:04.689Z,5.30
2019-03-25T14:10:34.576Z,9.40
2019-03-25T14:13:03.806Z,11.97
2019-03-25T14:15:33.253Z,2.40
2019-03-25T14:18:02.498Z,5.23
2019-03-25T14:20:31.783Z,9.93
2019-03-25T14:23:00.369Z,19.13
2019-03-25T14:25:29.562Z,5.77
2019-03-25T14:27:59.256Z,4.60
2019-03-25T14:30:28.593Z,6.73
2019-03-25T14:32:57.796Z,7.70
2019-03-25T14:35:27.079Z,8.07
2019-03-25T14:37:56.384Z,4.10
2019-03-25T14:40:25.692Z,5.13
2019-03-25T14:42:55.446Z,3.90
2019-03-25T14:45:26.588Z,16.07
2019-03-25T14:47:55.165Z,9.63
2019-03-25T14:50:24.416Z,12.93
2019-03-25T14:52:53.707Z,10.07
2019-03-25T14:55:23.769Z,16.53
2019-03-25T14:57:53.051Z,9.73
2019-03-25T15:00:25.514Z,5.77
2019-03-25T15:02:53.413Z,7.03
2019-03-25T15:05:23.508Z,13.20
2019-03-25T15:07:52.084Z,11.70
2019-03-25T15:10:21.390Z,9.53
2019-03-25T15:12:50.601Z,7.30
2019-03-25T15:15:19.879Z,7.47
2019-03-25T15:17:49.173Z,15.10
2019-03-25T15:20:18.488Z,5.10
2019-03-25T15:22:47.673Z,7.70
2019-03-25T15:25:16.873Z,6.73
2019-03-25T15:27:46.195Z,6.37
2019-03-25T15:30:14.925Z,7.93
2019-03-25T15:32:44.273Z,7.47
2019-03-25T15:35:13.494Z,4.10
2019-03-25T15:37:42.765Z,8.50
2019-03-25T15:40:12.130Z,5.17
2019-03-25T15:42:41.506Z,12.33
2019-03-25T15:45:10.760Z,9.57
2019-03-25T15:47:40.471Z,9.67
2019-03-25T15:50:09.933Z,6.60
2019-03-25T15:52:38.672Z,4.00
2019-03-25T15:55:07.992Z,9.63
2019-03-25T15:57:39.563Z,9.00
2019-03-25T16:00:12.196Z,7.90
2019-03-25T16:02:41.448Z,3.03
2019-03-25T16:05:10.708Z,17.97
2019-03-25T16:07:40.003Z,4.87
2019-03-25T16:10:09.619Z,6.30
2019-03-25T16:12:39.033Z,6.07
2019-03-25T16:15:07.712Z,5.50
2019-03-25T16:17:36.959Z,4.30
2019-03-25T16:20:06.743Z,10.63
2019-03-25T16:22:36.046Z,13.17
2019-03-25T16:25:05.275Z,9.60
2019-03-25T16:27:34.576Z,10.20
2019-03-25T16:30:03.939Z,16.30
2019-03-25T16:32:32.523Z,10.50
2019-03-25T16:35:01.849Z,17.23
2019-03-25T16:37:31.104Z,9.17
2019-03-25T16:40:00.380Z,6.63
2019-03-25T16:42:29.681Z,7.23
2019-03-25T16:44:58.969Z,13.40
2019-03-25T16:47:28.214Z,19.17
2019-03-25T16:49:57.502Z,12.53
2019-03-25T16:52:26.767Z,6.07
2019-03-25T16:54:55.349Z,6.07
2019-03-25T16:57:24.789Z,13.20
2019-03-25T16:59:54.123Z,19.23
2019-03-25T17:02:23.543Z,9.53
2019-03-25T17:04:52.780Z,10.97
2019-03-25T17:07:22.097Z,9.33
2019-03-25T17:09:51.399Z,18.20
2019-03-25T17:12:21.762Z,37.67
2019-03-25T17:14:51.015Z,92.57
2019-03-25T17:17:19.619Z,101.60
2019-03-25T17:19:48.832Z,118.93
2019-03-25T17:22:18.108Z,53.00
2019-03-25T17:24:47.778Z,15.30
2019-03-25T17:27:16.983Z,17.10
2019-03-25T17:29:46.285Z,71.60
2019-03-25T17:32:15.577Z,18.33
2019-03-25T17:34:44.904Z,19.33
2019-03-25T17:37:14.115Z,12.00
2019-03-25T17:39:42.757Z,6.80
2019-03-25T17:42:12.040Z,6.50
2019-03-25T17:44:41.246Z,5.80
2019-03-25T17:47:10.441Z,6.17
2019-03-25T17:49:39.742Z,4.13
2019-03-25T17:52:08.943Z,2.23
2019-03-25T17:54:38.244Z,6.23
2019-03-25T17:57:07.435Z,1.77
2019-03-25T17:59:36.043Z,2.00
2019-03-25T18:02:05.320Z,3.73
2019-03-25T18:04:34.535Z,2.80
2019-03-25T18:07:03.857Z,3.63
2019-03-25T18:09:33.458Z,7.00
2019-03-25T18:12:02.737Z,2.30
2019-03-25T18:14:31.946Z,7.50
2019-03-25T18:17:01.151Z,10.03
2019-03-25T18:19:30.505Z,6.80
2019-03-25T18:21:59.049Z,1.67
2019-03-25T18:24:28.324Z,11.73
2019-03-25T18:26:57.522Z,15.57
2019-03-25T18:29:26.925Z,55.83
2019-03-25T18:31:56.142Z,42.45
2019-03-25T18:34:25.348Z,13.72
2019-03-25T18:36:54.595Z,5.70
2019-03-25T18:39:23.792Z,2.62
2019-03-25T18:41:53.002Z,7.40
2019-03-25T18:44:21.575Z,5.40
2019-03-25T18:46:51.122Z,3.87
2019-03-25T18:49:20.442Z,9.60
2019-03-25T18:51:49.689Z,1.85
2019-03-25T18:54:19.007Z,2.15
2019-03-25T18:56:48.310Z,2.17
2019-03-25T18:59:17.605Z,3.83
2019-03-25T19:01:54.484Z,2.45
2019-03-25T19:04:18.137Z,2.33
2019-03-25T19:06:46.713Z,3.15
2019-03-25T19:09:15.939Z,4.35
2019-03-25T19:11:45.643Z,38.55
2019-03-25T19:14:14.889Z,3.42
2019-03-25T19:16:44.142Z,8.47
2019-03-25T19:19:13.436Z,8.73
2019-03-25T19:21:42.756Z,3.33
2019-03-25T19:24:12.045Z,4.78
2019-03-25T19:26:40.643Z,4.45
2019-03-25T19:29:09.948Z,3.60
2019-03-25T19:31:39.594Z,2.90
2019-03-25T19:34:08.893Z,4.97
2019-03-25T19:36:38.252Z,3.17
2019-03-25T19:39:07.988Z,3.65
2019-03-25T19:41:37.300Z,2.97
2019-03-25T19:44:06.658Z,3.20
2019-03-25T19:46:35.955Z,3.45
2019-03-25T19:49:04.717Z,4.47
2019-03-25T19:51:34.339Z,3.97
2019-03-25T19:54:03.638Z,3.73
2019-03-25T19:56:32.929Z,2.63
2019-03-25T19:59:02.272Z,3.17
2019-03-25T20:01:31.503Z,3.90
2019-03-25T20:04:00.716Z,6.15
2019-03-25T20:06:30.072Z,3.47
2019-03-25T20:08:58.714Z,21.12
2019-03-25T20:11:27.991Z,11.50
2019-03-25T20:13:57.583Z,16.97
2019-03-25T20:16:26.895Z,25.70
2019-03-25T20:18:56.242Z,13.28
2019-03-25T20:21:25.453Z,7.25
2019-03-25T20:23:54.744Z,3.15
2019-03-25T20:26:24.076Z,8.95
2019-03-25T20:28:53.320Z,21.20
2019-03-25T20:31:21.862Z,21.40
2019-03-25T20:33:51.240Z,12.65
2019-03-25T20:36:20.453Z,22.93
2019-03-25T20:38:49.846Z,13.32
2019-03-25T20:41:19.313Z,7.28
2019-03-25T20:43:48.642Z,8.85
2019-03-25T20:46:17.918Z,7.62
2019-03-25T20:48:47.248Z,12.85
2019-03-25T20:51:16.484Z,4.65
2019-03-25T20:53:45.084Z,7.72
2019-03-25T20:56:14.316Z,9.18
2019-03-25T20:58:43.690Z,4.33
2019-03-25T21:01:12.955Z,8.55
2019-03-25T21:03:42.276Z,5.40
2019-03-25T21:06:11.500Z,3.62
2019-03-25T21:08:41.196Z,6.57
2019-03-25T21:11:10.494Z,7.70
2019-03-25T21:13:39.735Z,6.15
2019-03-25T21:16:08.433Z,6.20
2019-03-25T21:18:37.729Z,14.73
2019-03-25T21:21:07.048Z,7.95
2019-03-25T21:23:36.300Z,8.15
2019-03-25T21:26:05.628Z,6.00
2019-03-25T21:28:34.871Z,28.35
2019-03-25T21:31:04.125Z,46.08
2019-03-25T21:33:33.459Z,16.93
2019-03-25T21:36:02.735Z,16.42
2019-03-25T21:38:31.776Z,22.13
2019-03-25T21:41:01.082Z,7.83
2019-03-25T21:43:30.414Z,7.12
2019-03-25T21:45:59.829Z,4.03
2019-03-25T21:48:29.146Z,4.47
2019-03-25T21:50:58.384Z,6.10
2019-03-25T21:53:27.719Z,3.80
2019-03-25T21:55:57.265Z,3.12
2019-03-25T21:58:26.013Z,4.47
2019-03-25T22:00:55.297Z,9.08
2019-03-25T22:03:24.553Z,4.67
2019-03-25T22:05:53.801Z,6.55
2019-03-25T22:08:23.194Z,10.70
2019-03-25T22:10:52.705Z,6.17
2019-03-25T22:13:22.031Z,9.60
2019-03-25T22:15:51.248Z,10.53
2019-03-25T22:18:20.449Z,11.35
2019-03-25T22:20:49.006Z,6.47
2019-03-25T22:23:18.236Z,10.55
2019-03-25T22:25:47.442Z,5.62
2019-03-25T22:28:16.702Z,4.53
2019-03-25T22:30:46.207Z,5.17
2019-03-25T22:33:25.848Z,4.25
2019-03-25T22:35:47.829Z,7.55
2019-03-25T22:38:17.440Z,4.92
2019-03-25T22:40:47.065Z,13.15
2019-03-25T22:43:15.794Z,5.00
2019-03-25T22:45:45.610Z,3.72
2019-03-25T22:48:14.816Z,4.80
2019-03-25T22:50:44.027Z,6.95
2019-03-25T22:53:13.688Z,8.88
2019-03-25T22:55:42.939Z,7.25
2019-03-25T22:58:12.230Z,3.45
2019-03-25T23:00:44.772Z,3.83
2019-03-25T23:03:14.749Z,8.58
2019-03-25T23:05:43.309Z,3.95
2019-03-25T23:08:12.600Z,3.42
2019-03-25T23:10:41.880Z,7.42
2019-03-25T23:13:11.113Z,6.53
2019-03-25T23:15:40.445Z,3.40
2019-03-25T23:18:09.720Z,5.20
2019-03-25T23:20:39.041Z,4.25
2019-03-25T23:23:08.304Z,7.85
2019-03-25T23:25:37.619Z,4.47
2019-03-25T23:28:06.181Z,7.22
2019-03-25T23:30:35.399Z,7.67
2019-03-25T23:33:04.717Z,7.50
2019-03-25T23:35:33.934Z,5.30
2019-03-25T23:38:03.483Z,3.83
2019-03-25T23:40:32.703Z,3.62
2019-03-25T23:43:01.984Z,4.05
2019-03-25T23:45:31.200Z,3.67
2019-03-25T23:48:00.513Z,5.25
2019-03-25T23:50:29.120Z,6.00
2019-03-25T23:52:58.351Z,4.70
2019-03-25T23:55:27.576Z,5.42
2019-03-25T23:57:56.806Z,5.47
